This is the latest recevied weather packets stored in our database for station/object N0OQA. If no packets are shown the sender has not sent any weather packets the latest 10 day(s).
| Time | Temp. | Humidity | Pressure | Rain* | Wind** | Luminosity | Snow |
|---|---|---|---|---|---|---|---|
| 1788461134 | 31.11° C | 49% | 1011.5 hPa | 0 mm | - | - | - |
| 1788460832 | 31.11° C | 49% | 1011.5 hPa | 0 mm | - | - | - |
| 1788460531 | 31.67° C | 48% | 1011.5 hPa | 0 mm | - | - | - |
| 1788460230 | 31.67° C | 47% | 1011 hPa | 0 mm | - | - | - |
| 1788459929 | 31.67° C | 47% | 1011.5 hPa | 0 mm | - | - | - |
| 1788459629 | 31.67° C | 48% | 1011.4 hPa | 0 mm | - | - | - |
| 1788459329 | 32.22° C | 47% | 1011.5 hPa | 0 mm | - | - | - |
| 1788459028 | 31.67° C | 47% | 1011.6 hPa | 0 mm | - | - | - |
| 1788458728 | 31.67° C | 48% | 1011.8 hPa | 0 mm | - | - | - |
| 1788458428 | 31.11° C | 48% | 1011.8 hPa | 0 mm | - | - | - |
| 1788458128 | 31.11° C | 48% | 1011.8 hPa | 0 mm | - | - | - |
| 1788457856 | 31.67° C | 48% | 1011.8 hPa | 0 mm | - | - | - |
| 1788457527 | 31.67° C | 47% | 1011.7 hPa | 0 mm | - | - | - |
| 1788457226 | 31.67° C | 47% | 1011.8 hPa | 0 mm | - | - | - |
| 1788456926 | 31.11° C | 48% | 1011.9 hPa | 0 mm | - | - | - |
| 1788456625 | 31.11° C | 49% | 1011.9 hPa | 0 mm | - | - | - |
| 1788456325 | 31.11° C | 49% | 1011.9 hPa | 0 mm | - | - | - |
| 1788456025 | 31.11° C | 49% | 1012 hPa | 0 mm | - | - | - |
| 1788455424 | 30.56° C | 51% | 1012.2 hPa | 0 mm | - | - | - |
| 1788454824 | 30° C | 52% | 1012.3 hPa | 0 mm | - | - | - |
| 1788453621 | 28.89° C | 59% | 1012.6 hPa | 0 mm | - | - | - |
| 1788447916 | 24.44° C | 81% | 1012.4 hPa | 0 mm | - | - | - |
| 1788441607 | 21.11° C | 90% | 1012.9 hPa | 0 mm | - | - | - |
| 1788439805 | 20.56° C | 90% | 1013 hPa | 0 mm | - | - | - |
| 1788437399 | 21.11° C | 90% | 1012.8 hPa | 0 mm | - | - | - |
* Rain since midnight (hover to see other rain measurements)
** Current wind speed in m/s (hover to see current wind gust speed)